Time;durP1;ratioP1;P1;durP2;ratioP2;P2;SDS_P1;SDS_P2;PMS_P1;PMS_P2;Temp;Humidity;BMP_temperature;BMP_pressure;BME280_temperature;BME280_humidity;BME280_pressure;Samples;Min_cycle;Max_cycle;Signal;HPM_P1;HPM_P2
2023/03/05 00:02:23;;;;;;;0.10;0.10;;;3.60;99.90;;;;;;5069183;28;20539;-69
2023/03/05 00:04:49;;;;;;;0.30;0.20;;;3.60;99.90;;;;;;5057902;28;20636;-69
2023/03/05 00:07:14;;;;;;;0.00;0.00;;;3.60;99.90;;;;;;5065143;28;20195;-70
2023/03/05 00:09:40;;;;;;;0.00;0.00;;;3.60;99.90;;;;;;5058223;28;20217;-69
2023/03/05 00:12:06;;;;;;;0.25;0.25;;;3.60;99.90;;;;;;5067900;28;20177;-69
2023/03/05 00:14:31;;;;;;;0.05;0.05;;;3.60;99.90;;;;;;5058953;28;20240;-70
2023/03/05 00:16:57;;;;;;;0.00;0.00;;;3.60;99.90;;;;;;5064554;28;20177;-69
2023/03/05 00:19:22;;;;;;;0.00;0.00;;;3.50;99.90;;;;;;5070936;28;20177;-69
2023/03/05 00:21:48;;;;;;;0.00;0.00;;;3.50;99.90;;;;;;5057040;28;20178;-69
2023/03/05 00:24:17;;;;;;;0.00;0.00;;;3.50;99.90;;;;;;5058601;28;20189;-69
2023/03/05 00:26:43;;;;;;;0.20;0.20;;;3.50;99.90;;;;;;5053974;28;20196;-69
2023/03/05 00:29:14;;;;;;;0.13;0.13;;;3.50;99.90;;;;;;5054033;28;20280;-69
2023/03/05 00:31:39;;;;;;;0.00;0.00;;;3.50;99.90;;;;;;5053694;28;20184;-69
2023/03/05 00:34:08;;;;;;;0.00;0.00;;;3.50;99.90;;;;;;5071211;28;20182;-69
2023/03/05 00:36:37;;;;;;;0.00;0.00;;;3.60;99.90;;;;;;5065492;28;20663;-69
2023/03/05 00:39:03;;;;;;;0.00;0.00;;;3.60;99.90;;;;;;5063699;28;20173;-69
2023/03/05 00:41:29;;;;;;;0.00;0.00;;;3.60;99.90;;;;;;5053372;28;20181;-69
2023/03/05 00:43:54;;;;;;;0.00;0.00;;;3.60;99.90;;;;;;5059091;28;20651;-69
2023/03/05 00:46:21;;;;;;;0.10;0.10;;;3.60;99.90;;;;;;5046150;28;20273;-68
2023/03/05 00:48:47;;;;;;;0.00;0.00;;;3.60;99.90;;;;;;5066331;28;20201;-69
2023/03/05 00:51:13;;;;;;;0.10;0.10;;;3.60;99.90;;;;;;5056008;28;20192;-69
2023/03/05 00:53:38;;;;;;;0.00;0.00;;;3.60;99.90;;;;;;5063157;28;20181;-69
2023/03/05 00:56:04;;;;;;;0.00;0.00;;;3.60;99.90;;;;;;5055503;28;20185;-69
2023/03/05 00:58:30;;;;;;;0.30;0.30;;;3.70;99.90;;;;;;5058476;28;20596;-70
2023/03/05 01:01:01;;;;;;;0.00;0.00;;;3.70;99.90;;;;;;5052970;28;20209;-70
2023/03/05 01:03:27;;;;;;;0.00;0.00;;;3.70;99.90;;;;;;5065903;28;20215;-70
2023/03/05 01:05:53;;;;;;;3.20;0.20;;;3.70;99.90;;;;;;5056699;28;20268;-70
2023/03/05 01:08:19;;;;;;;0.00;0.00;;;3.70;99.90;;;;;;5057262;28;20600;-71
2023/03/05 01:10:44;;;;;;;0.00;0.00;;;3.70;99.90;;;;;;5057518;28;20217;-70
2023/03/05 01:13:10;;;;;;;0.00;0.00;;;3.70;99.90;;;;;;5057704;28;20236;-70
2023/03/05 01:15:35;;;;;;;0.00;0.00;;;3.60;99.90;;;;;;5054557;28;20312;-70
2023/03/05 01:18:01;;;;;;;0.00;0.00;;;3.60;99.90;;;;;;5063848;28;20173;-71
2023/03/05 01:20:26;;;;;;;0.00;0.00;;;3.60;99.90;;;;;;5064512;28;20173;-70
2023/03/05 01:22:52;;;;;;;0.00;0.00;;;3.50;99.90;;;;;;5065126;28;20186;-71
2023/03/05 01:25:19;;;;;;;0.00;0.00;;;3.60;99.90;;;;;;5054368;28;20185;-70
2023/03/05 01:27:44;;;;;;;0.00;0.00;;;3.60;99.90;;;;;;5065014;28;20200;-71
2023/03/05 01:30:12;;;;;;;0.00;0.00;;;3.50;99.90;;;;;;5054149;28;20217;-70
2023/03/05 01:32:38;;;;;;;0.00;0.00;;;3.60;99.90;;;;;;5059321;28;20179;-70
2023/03/05 01:35:05;;;;;;;0.00;0.00;;;3.60;99.90;;;;;;5063386;28;20189;-70
2023/03/05 01:37:31;;;;;;;0.00;0.00;;;3.60;99.90;;;;;;5065529;28;20199;-70
2023/03/05 01:39:56;;;;;;;0.00;0.00;;;3.60;99.90;;;;;;5055977;28;20182;-71
2023/03/05 01:42:22;;;;;;;0.00;0.00;;;3.60;99.90;;;;;;5068464;28;20189;-69
2023/03/05 01:45:06;;;;;;;0.00;0.00;;;3.60;99.90;;;;;;5058536;28;20212;-70
2023/03/05 01:47:31;;;;;;;0.03;0.03;;;3.50;99.90;;;;;;5068005;28;20176;-70
2023/03/05 01:49:58;;;;;;;0.80;0.63;;;3.50;99.90;;;;;;5063382;28;20217;-71
2023/03/05 01:52:26;;;;;;;0.00;0.00;;;3.50;99.90;;;;;;5065554;28;20185;-71
2023/03/05 01:55:03;;;;;;;0.00;0.00;;;3.50;99.90;;;;;;5060371;28;20212;-70
2023/03/05 01:57:53;;;;;;;0.00;0.00;;;3.50;99.90;;;;;;5055643;28;20177;-71
2023/03/05 02:00:29;;;;;;;0.03;0.03;;;3.50;99.90;;;;;;5059033;28;20190;-71
2023/03/05 02:02:56;;;;;;;0.08;0.08;;;3.50;99.90;;;;;;5055330;28;20184;-71
2023/03/05 02:05:31;;;;;;;0.08;0.08;;;3.50;99.90;;;;;;5066275;28;20188;-71
2023/03/05 02:08:03;;;;;;;0.20;0.20;;;3.50;99.90;;;;;;5068022;28;20587;-71
2023/03/05 02:10:34;;;;;;;0.70;0.57;;;3.50;99.90;;;;;;5054542;28;20287;-70
2023/03/05 02:13:02;;;;;;;0.15;0.15;;;3.50;99.90;;;;;;5055006;28;20174;-71
2023/03/05 02:15:28;;;;;;;0.00;0.00;;;3.50;99.90;;;;;;5058374;28;20221;-71
2023/03/05 02:17:54;;;;;;;0.00;0.00;;;3.50;99.90;;;;;;5063413;28;20187;-71
2023/03/05 02:20:24;;;;;;;0.00;0.00;;;3.50;99.90;;;;;;5056214;28;20178;-70
2023/03/05 02:22:50;;;;;;;0.00;0.00;;;3.50;99.90;;;;;;5056194;28;20268;-71
2023/03/05 02:25:23;;;;;;;0.03;0.03;;;3.50;99.90;;;;;;5059512;28;20277;-71
2023/03/05 02:27:58;;;;;;;0.00;0.00;;;3.50;99.90;;;;;;5057227;28;20182;-71
2023/03/05 02:30:24;;;;;;;0.08;0.08;;;3.50;99.90;;;;;;5062216;28;20279;-71
2023/03/05 02:32:50;;;;;;;0.00;0.00;;;3.60;99.90;;;;;;5052378;28;20216;-71
2023/03/05 02:35:15;;;;;;;0.10;0.10;;;3.60;99.90;;;;;;5050737;28;20185;-71
2023/03/05 02:37:41;;;;;;;0.30;0.30;;;3.60;99.90;;;;;;5057018;28;20192;-71
2023/03/05 02:40:09;;;;;;;0.08;0.08;;;3.60;99.90;;;;;;5052163;28;20686;-71
2023/03/05 02:42:35;;;;;;;0.00;0.00;;;3.60;99.90;;;;;;5058467;28;20296;-71
2023/03/05 02:45:01;;;;;;;0.00;0.00;;;3.60;99.90;;;;;;5049881;28;20186;-71
2023/03/05 02:47:27;;;;;;;0.00;0.00;;;3.60;99.90;;;;;;5050442;28;20581;-71
2023/03/05 02:49:53;;;;;;;0.00;0.00;;;3.60;99.90;;;;;;5053100;28;20248;-71
2023/03/05 02:52:21;;;;;;;0.00;0.00;;;3.50;99.90;;;;;;5055619;28;20217;-71
2023/03/05 02:54:47;;;;;;;0.03;0.03;;;3.50;99.90;;;;;;5065111;28;20336;-71
2023/03/05 02:57:13;;;;;;;0.00;0.00;;;3.50;99.90;;;;;;5058632;28;20199;-71
2023/03/05 02:59:39;;;;;;;0.50;0.50;;;3.50;99.90;;;;;;5062285;28;20232;-71
2023/03/05 03:02:04;;;;;;;0.00;0.00;;;3.50;99.90;;;;;;5050973;28;20242;-71
2023/03/05 03:04:30;;;;;;;0.28;0.28;;;3.50;99.90;;;;;;5055275;28;20215;-70
2023/03/05 03:06:55;;;;;;;0.20;0.20;;;3.50;99.90;;;;;;5050069;28;20212;-71
2023/03/05 03:09:21;;;;;;;0.40;0.40;;;3.50;99.90;;;;;;5052261;28;20266;-70
2023/03/05 03:11:46;;;;;;;0.00;0.00;;;3.50;99.90;;;;;;5050353;28;20234;-71
2023/03/05 03:14:12;;;;;;;0.10;0.10;;;3.50;99.90;;;;;;5052415;28;20282;-71
2023/03/05 03:16:37;;;;;;;0.00;0.00;;;3.40;99.90;;;;;;5051687;28;20208;-71
2023/03/05 03:19:03;;;;;;;0.15;0.15;;;3.40;99.90;;;;;;5052788;28;20875;-71
2023/03/05 03:21:28;;;;;;;0.00;0.00;;;3.40;99.90;;;;;;5059893;28;20188;-71
2023/03/05 03:23:54;;;;;;;0.20;0.20;;;3.40;99.90;;;;;;5052691;28;20189;-71
2023/03/05 03:26:19;;;;;;;0.00;0.00;;;3.40;99.90;;;;;;5065309;28;20172;-71
2023/03/05 03:28:46;;;;;;;0.00;0.00;;;3.30;99.90;;;;;;5053194;28;20196;-72
2023/03/05 03:31:11;;;;;;;0.00;0.00;;;3.30;99.90;;;;;;5050570;28;20177;-71
2023/03/05 03:33:37;;;;;;;0.00;0.00;;;3.20;99.90;;;;;;5057219;28;20232;-71
2023/03/05 03:36:04;;;;;;;0.00;0.00;;;3.30;99.90;;;;;;5051096;28;20181;-71
2023/03/05 03:38:29;;;;;;;0.00;0.00;;;3.20;99.90;;;;;;5052734;28;20261;-71
2023/03/05 03:40:55;;;;;;;0.08;0.08;;;3.30;99.90;;;;;;5054856;28;20259;-72
2023/03/05 03:43:21;;;;;;;0.03;0.03;;;3.30;99.90;;;;;;5058251;28;20181;-70
2023/03/05 03:45:46;;;;;;;0.00;0.00;;;3.30;99.90;;;;;;5050757;28;20181;-71
2023/03/05 03:48:12;;;;;;;0.00;0.00;;;3.30;99.90;;;;;;5050823;28;20177;-71
2023/03/05 03:50:39;;;;;;;0.25;0.25;;;3.30;99.90;;;;;;5050286;28;20212;-71
2023/03/05 03:53:05;;;;;;;0.65;0.65;;;3.30;99.90;;;;;;5063037;28;20194;-71
2023/03/05 03:55:31;;;;;;;0.00;0.00;;;3.30;99.90;;;;;;5050364;28;20177;-71
2023/03/05 03:57:56;;;;;;;0.00;0.00;;;3.30;99.90;;;;;;5056486;28;20251;-71
2023/03/05 04:00:22;;;;;;;0.20;0.20;;;3.40;99.90;;;;;;5053140;28;20185;-71
2023/03/05 04:02:48;;;;;;;0.00;0.00;;;3.40;99.90;;;;;;5059006;28;20181;-72
2023/03/05 04:05:13;;;;;;;0.00;0.00;;;3.40;99.90;;;;;;5050783;28;20189;-72
2023/03/05 04:07:39;;;;;;;0.00;0.00;;;3.40;99.90;;;;;;5060142;28;20557;-72
2023/03/05 04:10:05;;;;;;;0.00;0.00;;;3.40;99.90;;;;;;5054341;28;20217;-72
2023/03/05 04:12:30;;;;;;;0.30;0.30;;;3.40;99.90;;;;;;5057954;28;20239;-72
2023/03/05 04:14:56;;;;;;;0.08;0.08;;;3.40;99.90;;;;;;5054658;28;20370;-72
2023/03/05 04:17:21;;;;;;;0.15;0.15;;;3.40;99.90;;;;;;5061955;28;20192;-71
2023/03/05 04:19:47;;;;;;;0.32;0.32;;;3.40;99.90;;;;;;5068119;28;20215;-72
2023/03/05 04:22:14;;;;;;;0.40;0.40;;;3.40;99.90;;;;;;5060000;28;20582;-72
2023/03/05 04:24:40;;;;;;;0.00;0.00;;;3.40;99.90;;;;;;5068346;28;20264;-72
2023/03/05 04:27:06;;;;;;;0.10;0.10;;;3.40;99.90;;;;;;5056779;28;20177;-73
2023/03/05 04:29:32;;;;;;;0.00;0.00;;;3.40;99.90;;;;;;5055485;28;20274;-72
2023/03/05 04:31:58;;;;;;;0.00;0.00;;;3.40;99.90;;;;;;5055288;28;20645;-72
2023/03/05 04:34:23;;;;;;;0.00;0.00;;;3.50;99.90;;;;;;5058031;28;20231;-71
2023/03/05 04:36:49;;;;;;;0.00;0.00;;;3.40;99.90;;;;;;5069415;28;20188;-72
2023/03/05 04:39:15;;;;;;;0.15;0.15;;;3.40;99.90;;;;;;5059228;28;20176;-72
2023/03/05 04:41:40;;;;;;;0.00;0.00;;;3.40;99.90;;;;;;5064084;28;20200;-72
2023/03/05 04:44:06;;;;;;;0.00;0.00;;;3.40;99.90;;;;;;5053275;28;20255;-72
2023/03/05 04:46:32;;;;;;;0.40;0.40;;;3.40;99.90;;;;;;5068485;28;20255;-72
2023/03/05 04:48:57;;;;;;;0.28;0.28;;;3.40;99.90;;;;;;5067414;28;20193;-71
2023/03/05 04:51:23;;;;;;;0.80;0.28;;;3.40;99.90;;;;;;5071799;28;20184;-70
2023/03/05 04:53:48;;;;;;;0.20;0.20;;;3.40;99.90;;;;;;5065079;28;20216;-71
2023/03/05 04:56:14;;;;;;;0.10;0.10;;;3.40;99.90;;;;;;5059629;28;20224;-71
2023/03/05 04:58:40;;;;;;;0.10;0.10;;;3.30;99.90;;;;;;5065306;28;20200;-71
2023/03/05 05:01:06;;;;;;;0.00;0.00;;;3.40;99.90;;;;;;5052996;28;20230;-72
2023/03/05 05:03:32;;;;;;;0.00;0.00;;;3.40;99.90;;;;;;5053628;28;20640;-72
2023/03/05 05:05:59;;;;;;;0.30;0.30;;;3.40;99.90;;;;;;5067891;28;20189;-73
2023/03/05 05:08:24;;;;;;;0.08;0.08;;;3.40;99.90;;;;;;5059255;28;20192;-72
2023/03/05 05:10:58;;;;;;;0.28;0.28;;;3.40;99.90;;;;;;5064830;28;20216;-73
2023/03/05 05:13:24;;;;;;;0.20;0.20;;;3.40;99.90;;;;;;5051646;28;20892;-72
2023/03/05 05:15:49;;;;;;;0.00;0.00;;;3.50;99.90;;;;;;5061281;28;20285;-73
2023/03/05 05:18:15;;;;;;;0.00;0.00;;;3.40;99.90;;;;;;5056528;28;20584;-73
2023/03/05 05:20:41;;;;;;;0.00;0.00;;;3.50;99.90;;;;;;5065953;28;20200;-72
2023/03/05 05:23:06;;;;;;;0.03;0.03;;;3.50;99.90;;;;;;5064453;28;20556;-72
2023/03/05 05:25:32;;;;;;;0.17;0.17;;;3.50;99.90;;;;;;5060932;28;20235;-72
2023/03/05 05:27:57;;;;;;;0.30;0.30;;;3.50;99.90;;;;;;5059065;28;20189;-73
2023/03/05 05:30:23;;;;;;;0.00;0.00;;;3.40;99.90;;;;;;5053039;28;20213;-72
2023/03/05 05:32:48;;;;;;;0.00;0.00;;;3.40;99.90;;;;;;5062754;28;20255;-72
2023/03/05 05:35:14;;;;;;;0.10;0.10;;;3.40;99.90;;;;;;5062117;28;20189;-73
2023/03/05 05:37:39;;;;;;;0.00;0.00;;;3.40;99.90;;;;;;5062133;28;20215;-73
2023/03/05 05:40:07;;;;;;;0.00;0.00;;;3.40;99.90;;;;;;5061721;28;20181;-72
2023/03/05 05:42:33;;;;;;;0.05;0.05;;;3.40;99.90;;;;;;5054153;28;20231;-72
2023/03/05 05:44:59;;;;;;;0.00;0.00;;;3.40;99.90;;;;;;5057475;28;20263;-73
2023/03/05 05:47:24;;;;;;;0.00;0.00;;;3.40;99.90;;;;;;5052424;28;20268;-72
2023/03/05 05:49:50;;;;;;;0.00;0.00;;;3.40;99.90;;;;;;5051834;28;20217;-73
2023/03/05 05:52:16;;;;;;;0.88;0.85;;;3.40;99.90;;;;;;5064099;28;20609;-73
2023/03/05 05:54:41;;;;;;;0.00;0.00;;;3.40;99.90;;;;;;5066239;28;20193;-72
2023/03/05 05:57:07;;;;;;;0.00;0.00;;;3.50;99.90;;;;;;5053231;28;21064;-72
2023/03/05 05:59:32;;;;;;;0.00;0.00;;;3.50;99.90;;;;;;5051408;28;20538;-72
2023/03/05 06:01:58;;;;;;;0.00;0.00;;;3.40;99.90;;;;;;5054021;28;20181;-73
2023/03/05 06:04:24;;;;;;;0.57;0.57;;;3.40;99.90;;;;;;5057420;28;20190;-72
2023/03/05 06:06:49;;;;;;;0.00;0.00;;;3.30;99.90;;;;;;5051806;28;20184;-72
2023/03/05 06:09:15;;;;;;;0.10;0.10;;;3.30;99.90;;;;;;5057863;28;20535;-72
2023/03/05 06:11:41;;;;;;;0.00;0.00;;;3.30;99.90;;;;;;5055544;28;20235;-73
2023/03/05 06:14:07;;;;;;;0.03;0.03;;;3.30;99.90;;;;;;5059107;28;20262;-72
2023/03/05 06:16:33;;;;;;;0.00;0.00;;;3.30;99.90;;;;;;5058012;28;20185;-72
2023/03/05 06:19:03;;;;;;;0.00;0.00;;;3.30;99.90;;;;;;5058395;28;20177;-73
2023/03/05 06:21:29;;;;;;;0.00;0.00;;;3.30;99.90;;;;;;5044692;28;20177;-71
2023/03/05 06:23:57;;;;;;;0.00;0.00;;;3.30;99.90;;;;;;5058022;28;20181;-71
2023/03/05 06:26:23;;;;;;;0.00;0.00;;;3.30;99.90;;;;;;5060811;28;20186;-71
2023/03/05 06:28:49;;;;;;;0.20;0.20;;;3.30;99.90;;;;;;5054366;28;20185;-71
2023/03/05 06:31:18;;;;;;;0.38;0.38;;;3.40;99.90;;;;;;5055283;28;20651;-72
2023/03/05 06:33:44;;;;;;;0.13;0.13;;;3.30;99.90;;;;;;5052226;28;20276;-72
2023/03/05 06:36:12;;;;;;;0.10;0.10;;;3.40;99.90;;;;;;5050881;28;20192;-72
2023/03/05 06:38:38;;;;;;;0.00;0.00;;;3.30;99.90;;;;;;5053160;28;20181;-72
2023/03/05 06:41:10;;;;;;;0.00;0.00;;;3.40;99.90;;;;;;5062655;28;20249;-72
2023/03/05 06:43:38;;;;;;;0.00;0.00;;;3.40;99.90;;;;;;5040251;28;20184;-72
2023/03/05 06:46:05;;;;;;;0.00;0.00;;;3.40;99.90;;;;;;5058732;28;20174;-72
2023/03/05 06:48:31;;;;;;;0.00;0.00;;;3.50;99.90;;;;;;5055177;28;20173;-71
2023/03/05 06:50:56;;;;;;;0.20;0.20;;;3.50;99.90;;;;;;5063094;28;20224;-72
2023/03/05 06:53:23;;;;;;;0.00;0.00;;;3.50;99.90;;;;;;5066565;28;20669;-71
2023/03/05 06:55:49;;;;;;;0.00;0.00;;;3.50;99.90;;;;;;5059983;28;20240;-72
2023/03/05 06:58:15;;;;;;;1.13;1.05;;;3.50;99.90;;;;;;5061358;28;20180;-73
2023/03/05 07:00:42;;;;;;;0.32;0.32;;;3.50;99.90;;;;;;5057765;28;20176;-72
2023/03/05 07:03:07;;;;;;;0.10;0.10;;;3.50;99.90;;;;;;5058606;28;20584;-73
2023/03/05 07:05:33;;;;;;;0.20;0.20;;;3.50;99.90;;;;;;5052980;28;20283;-70
2023/03/05 07:07:58;;;;;;;0.00;0.00;;;3.50;99.90;;;;;;5050829;28;20568;-72
2023/03/05 07:10:24;;;;;;;0.00;0.00;;;3.50;99.90;;;;;;5054190;28;20216;-72
2023/03/05 07:12:49;;;;;;;0.00;0.00;;;3.50;99.90;;;;;;5050404;28;20185;-71
2023/03/05 07:15:15;;;;;;;0.00;0.00;;;3.50;99.90;;;;;;5062089;28;20224;-72
2023/03/05 07:17:40;;;;;;;0.20;0.20;;;3.60;99.90;;;;;;5051368;28;20644;-71
2023/03/05 07:20:06;;;;;;;0.00;0.00;;;3.60;99.90;;;;;;5063417;28;20181;-71
2023/03/05 07:22:32;;;;;;;0.00;0.00;;;3.60;99.90;;;;;;5055984;28;20661;-72
2023/03/05 07:24:57;;;;;;;0.00;0.00;;;3.60;99.90;;;;;;5057802;28;20177;-71
2023/03/05 07:27:24;;;;;;;0.10;0.10;;;3.60;99.90;;;;;;5064372;28;20184;-71
2023/03/05 07:29:50;;;;;;;0.20;0.20;;;3.60;99.90;;;;;;5056237;28;20219;-72
2023/03/05 07:32:15;;;;;;;0.10;0.10;;;3.60;99.90;;;;;;5054791;28;20263;-72
2023/03/05 07:34:41;;;;;;;0.10;0.10;;;3.60;99.90;;;;;;5062176;28;20185;-72
2023/03/05 07:37:06;;;;;;;0.00;0.00;;;3.60;99.90;;;;;;5051060;28;20192;-72
2023/03/05 07:39:32;;;;;;;0.00;0.00;;;3.60;99.90;;;;;;5055442;28;20176;-72
2023/03/05 07:41:57;;;;;;;0.00;0.00;;;3.60;99.90;;;;;;5066796;28;20195;-72
2023/03/05 07:44:23;;;;;;;0.00;0.00;;;3.70;99.90;;;;;;5053099;28;20268;-71
2023/03/05 07:46:48;;;;;;;0.00;0.00;;;3.70;99.90;;;;;;5060610;28;20177;-71
2023/03/05 07:49:14;;;;;;;0.47;0.47;;;3.70;99.90;;;;;;5062971;28;20223;-72
2023/03/05 07:51:40;;;;;;;0.00;0.00;;;3.80;99.90;;;;;;5055746;28;20181;-72
2023/03/05 07:54:06;;;;;;;0.08;0.08;;;3.90;99.90;;;;;;5067715;28;20200;-72
2023/03/05 07:56:36;;;;;;;0.00;0.00;;;3.90;99.90;;;;;;5067629;28;20262;-71
2023/03/05 07:59:09;;;;;;;0.00;0.00;;;4.00;99.90;;;;;;5054498;28;20258;-72
2023/03/05 08:01:35;;;;;;;0.00;0.00;;;4.00;99.90;;;;;;5058794;28;20193;-72
2023/03/05 08:04:03;;;;;;;0.00;0.00;;;4.00;99.90;;;;;;5057178;28;20220;-74
2023/03/05 08:06:28;;;;;;;0.00;0.00;;;4.10;99.90;;;;;;5054252;28;20326;-72
2023/03/05 08:08:54;;;;;;;0.00;0.00;;;4.30;99.90;;;;;;5054360;28;20272;-73
2023/03/05 08:11:20;;;;;;;0.00;0.00;;;4.90;99.90;;;;;;5065534;28;20189;-72
2023/03/05 08:13:45;;;;;;;0.00;0.00;;;6.20;99.90;;;;;;5055571;28;20192;-74
2023/03/05 08:16:19;;;;;;;0.00;0.00;;;7.10;99.90;;;;;;5061911;28;20328;-73
2023/03/05 08:18:45;;;;;;;0.00;0.00;;;7.20;99.90;;;;;;5067151;28;20189;-67
2023/03/05 08:21:25;;;;;;;0.00;0.00;;;6.80;99.70;;;;;;5059347;28;20263;-69
2023/03/05 08:23:51;;;;;;;0.00;0.00;;;6.40;99.90;;;;;;5071839;28;20212;-70
2023/03/05 08:26:20;;;;;;;0.00;0.00;;;6.00;99.90;;;;;;5054978;28;20660;-68
2023/03/05 08:28:45;;;;;;;0.30;0.30;;;5.80;99.90;;;;;;5059670;28;20250;-67
2023/03/05 08:31:13;;;;;;;0.00;0.00;;;5.50;99.90;;;;;;5064475;28;20253;-70
2023/03/05 08:33:39;;;;;;;0.00;0.00;;;5.30;99.90;;;;;;5065315;28;20203;-70
2023/03/05 08:36:06;;;;;;;0.32;0.32;;;5.10;99.90;;;;;;5057598;28;20200;-71
2023/03/05 08:38:31;;;;;;;0.10;0.10;;;4.90;99.90;;;;;;5071533;28;20182;-70
2023/03/05 08:40:57;;;;;;;0.00;0.00;;;4.80;99.90;;;;;;5071764;28;20282;-74
2023/03/05 08:43:22;;;;;;;0.17;0.17;;;4.70;99.90;;;;;;5061567;28;20192;-71
2023/03/05 08:45:50;;;;;;;0.00;0.00;;;4.70;99.90;;;;;;5066369;28;20235;-71
2023/03/05 08:48:15;;;;;;;0.00;0.00;;;4.70;99.90;;;;;;5057154;28;20829;-71
2023/03/05 08:50:41;;;;;;;0.10;0.10;;;4.70;99.90;;;;;;5069887;28;20279;-68
2023/03/05 08:53:07;;;;;;;0.00;0.00;;;4.70;99.90;;;;;;5060317;28;20276;-70
2023/03/05 08:55:33;;;;;;;0.00;0.00;;;4.80;99.90;;;;;;5063525;28;20177;-68
2023/03/05 08:57:58;;;;;;;0.00;0.00;;;4.90;99.90;;;;;;5067323;28;20181;-66
2023/03/05 09:00:24;;;;;;;0.00;0.00;;;4.80;99.90;;;;;;5055410;28;20185;-69
2023/03/05 09:02:50;;;;;;;0.55;0.55;;;4.80;99.90;;;;;;5069200;28;20209;-70
2023/03/05 09:05:16;;;;;;;0.10;0.10;;;4.80;99.90;;;;;;5054630;28;20177;-75
2023/03/05 09:07:41;;;;;;;0.00;0.00;;;4.90;99.90;;;;;;5064475;28;20216;-67
2023/03/05 09:10:10;;;;;;;0.10;0.10;;;4.90;99.90;;;;;;5058510;28;20225;-68
2023/03/05 09:12:36;;;;;;;0.60;0.30;;;4.90;99.90;;;;;;5060057;28;20620;-72
2023/03/05 09:15:03;;;;;;;0.52;0.52;;;5.30;99.90;;;;;;5067704;28;20524;-74
2023/03/05 09:17:29;;;;;;;0.22;0.22;;;6.50;99.90;;;;;;5052696;28;20225;-67
2023/03/05 09:19:54;;;;;;;0.00;0.00;;;7.10;99.90;;;;;;5053091;28;20188;-71
2023/03/05 09:22:20;;;;;;;0.00;0.00;;;7.10;99.90;;;;;;5064918;28;20173;-69
2023/03/05 09:24:45;;;;;;;0.00;0.00;;;7.10;99.90;;;;;;5054037;28;20796;-68
2023/03/05 09:27:11;;;;;;;0.00;0.00;;;7.00;99.90;;;;;;5059158;28;20202;-71
2023/03/05 09:29:37;;;;;;;0.30;0.30;;;6.90;99.90;;;;;;5055540;28;20221;-69
2023/03/05 09:32:02;;;;;;;0.00;0.00;;;6.70;99.90;;;;;;5065964;28;20181;-72
2023/03/05 09:34:28;;;;;;;0.00;0.00;;;6.60;99.90;;;;;;5054413;28;20178;-71
2023/03/05 09:36:53;;;;;;;0.00;0.00;;;6.50;99.90;;;;;;5053730;28;20180;-69
2023/03/05 09:39:19;;;;;;;0.00;0.00;;;6.60;99.90;;;;;;5060355;28;20621;-72
2023/03/05 09:42:03;;;;;;;0.00;0.00;;;6.60;99.90;;;;;;5054142;28;20197;-69
2023/03/05 09:44:32;;;;;;;0.00;0.00;;;6.60;99.90;;;;;;5052882;28;20771;-73
2023/03/05 09:47:13;;;;;;;0.10;0.10;;;6.60;99.90;;;;;;5057170;28;20208;-68
2023/03/05 09:49:58;;;;;;;0.10;0.10;;;6.70;99.90;;;;;;5066222;28;20295;-67
2023/03/05 09:52:40;;;;;;;0.00;0.00;;;6.80;99.90;;;;;;5055921;28;20174;-73
2023/03/05 09:55:19;;;;;;;0.00;0.00;;;6.80;99.90;;;;;;5050791;28;20182;-69
2023/03/05 09:57:50;;;;;;;0.05;0.05;;;6.90;99.90;;;;;;5054670;28;20209;-70
2023/03/05 10:00:33;;;;;;;0.00;0.00;;;6.80;99.90;;;;;;5052780;28;20177;-72
2023/03/05 10:03:04;;;;;;;0.00;0.00;;;6.60;99.90;;;;;;5056309;28;20189;-71
2023/03/05 10:05:52;;;;;;;0.22;0.22;;;6.60;99.90;;;;;;5061307;28;20532;-72
2023/03/05 10:08:21;;;;;;;0.30;0.30;;;7.40;99.90;;;;;;5046048;28;20182;-71
2023/03/05 10:10:51;;;;;;;0.00;0.00;;;7.70;99.90;;;;;;5063495;28;20209;-71
2023/03/05 10:13:31;;;;;;;0.13;0.13;;;7.80;99.60;;;;;;5055528;28;20173;-71
2023/03/05 10:16:07;;;;;;;0.00;0.00;;;7.80;99.40;;;;;;5061634;28;20253;-71
2023/03/05 10:18:51;;;;;;;0.00;0.00;;;7.50;99.30;;;;;;5056533;28;20192;-71
2023/03/05 10:21:44;;;;;;;2.53;0.20;;;7.60;99.70;;;;;;5056290;28;20176;-71
2023/03/05 10:24:35;;;;;;;0.25;0.25;;;7.60;99.80;;;;;;5052871;28;20271;-71
2023/03/05 10:27:13;;;;;;;0.32;0.30;;;7.60;99.30;;;;;;5055905;28;20239;-72
2023/03/05 10:29:52;;;;;;;0.00;0.00;;;7.60;99.70;;;;;;5063551;28;20548;-70
2023/03/05 10:32:45;;;;;;;0.00;0.00;;;7.50;99.60;;;;;;5059682;28;20180;-69
2023/03/05 10:35:41;;;;;;;0.28;0.28;;;7.30;99.50;;;;;;5061343;28;20298;-70
2023/03/05 10:38:21;;;;;;;0.00;0.00;;;7.30;99.50;;;;;;5068587;28;20215;-68
2023/03/05 10:40:54;;;;;;;0.00;0.00;;;7.20;99.70;;;;;;5056467;28;20181;-70
2023/03/05 10:43:26;;;;;;;0.00;0.00;;;7.20;99.20;;;;;;5052840;28;20173;-68
2023/03/05 10:45:53;;;;;;;0.17;0.17;;;7.10;99.30;;;;;;5049859;28;20170;-71
2023/03/05 10:48:30;;;;;;;0.10;0.10;;;7.00;99.10;;;;;;5050611;28;20177;-71
2023/03/05 10:51:00;;;;;;;0.00;0.00;;;6.80;99.20;;;;;;5053076;28;20217;-71
2023/03/05 10:53:31;;;;;;;0.25;0.25;;;6.80;99.70;;;;;;5069110;28;20180;-70
2023/03/05 10:56:01;;;;;;;0.00;0.00;;;6.80;99.70;;;;;;5065882;28;20169;-70
2023/03/05 10:58:26;;;;;;;0.30;0.30;;;6.70;99.80;;;;;;5051061;28;20222;-70
2023/03/05 11:01:11;;;;;;;0.00;0.00;;;6.80;99.90;;;;;;5051396;28;20280;-74
2023/03/05 11:04:02;;;;;;;0.00;0.00;;;6.90;99.90;;;;;;5053292;28;20185;-70
2023/03/05 11:06:33;;;;;;;0.00;0.00;;;7.20;99.90;;;;;;5054929;28;20197;-67
2023/03/05 11:09:16;;;;;;;0.00;0.00;;;7.80;99.90;;;;;;5059042;28;20249;-70
2023/03/05 11:11:42;;;;;;;1.33;0.50;;;8.40;99.90;;;;;;5032213;28;20178;-71
2023/03/05 11:14:29;;;;;;;0.73;0.73;;;9.00;99.00;;;;;;5054637;28;20203;-74
2023/03/05 11:16:56;;;;;;;0.00;0.00;;;9.60;97.40;;;;;;5052414;28;20221;-73
2023/03/05 11:19:32;;;;;;;0.38;0.38;;;9.60;95.00;;;;;;5060327;28;20183;-69
2023/03/05 11:22:19;;;;;;;0.00;0.00;;;9.20;94.10;;;;;;5051792;28;20562;-68
2023/03/05 11:25:17;;;;;;;0.20;0.20;;;8.90;94.10;;;;;;5042893;28;20181;-73
2023/03/05 11:27:53;;;;;;;0.00;0.00;;;8.40;94.60;;;;;;5054739;28;20260;-72
2023/03/05 11:30:28;;;;;;;0.00;0.00;;;8.10;94.70;;;;;;5054035;28;20200;-73
2023/03/05 11:33:09;;;;;;;0.03;0.03;;;7.90;95.00;;;;;;5053723;28;20181;-72
2023/03/05 11:35:37;;;;;;;0.40;0.40;;;7.70;95.30;;;;;;5055068;28;20192;-72
2023/03/05 11:38:06;;;;;;;0.20;0.20;;;7.50;95.40;;;;;;5059351;28;20203;-72
2023/03/05 11:40:34;;;;;;;0.00;0.00;;;7.30;95.90;;;;;;5062091;28;20765;-73
2023/03/05 11:43:01;;;;;;;0.15;0.15;;;7.00;96.60;;;;;;5059033;28;20189;-74
2023/03/05 11:45:30;;;;;;;0.00;0.00;;;6.80;97.20;;;;;;5055081;28;20185;-72
2023/03/05 11:48:12;;;;;;;0.00;0.00;;;6.70;97.70;;;;;;5053967;28;20695;-73
2023/03/05 11:50:40;;;;;;;0.00;0.00;;;6.60;97.90;;;;;;5054858;28;20243;-73
2023/03/05 11:53:12;;;;;;;0.52;0.52;;;6.50;98.30;;;;;;5054575;28;20177;-73
2023/03/05 11:55:47;;;;;;;0.00;0.00;;;6.50;98.80;;;;;;5055017;28;20248;-74
2023/03/05 11:58:34;;;;;;;0.15;0.15;;;6.60;98.60;;;;;;5047897;28;20188;-73
2023/03/05 12:01:00;;;;;;;0.10;0.10;;;6.60;98.20;;;;;;5053376;28;20177;-74
2023/03/05 12:03:32;;;;;;;0.00;0.00;;;6.60;98.20;;;;;;5054574;28;20235;-72
2023/03/05 12:06:15;;;;;;;0.28;0.28;;;6.40;98.30;;;;;;5055845;28;20185;-73
2023/03/05 12:08:45;;;;;;;0.00;0.00;;;6.30;98.50;;;;;;5053561;28;20193;-73
2023/03/05 12:11:25;;;;;;;1.38;0.52;;;6.30;98.70;;;;;;5063031;28;20213;-73
2023/03/05 12:14:20;;;;;;;0.13;0.13;;;6.20;98.80;;;;;;5050266;28;20169;-73
2023/03/05 12:16:50;;;;;;;0.10;0.10;;;6.20;99.00;;;;;;5052914;28;20229;-72
2023/03/05 12:19:29;;;;;;;2.17;0.80;;;6.20;99.20;;;;;;5034366;28;20534;-74
2023/03/05 12:21:55;;;;;;;0.03;0.03;;;6.20;99.10;;;;;;5034664;28;20641;-74
2023/03/05 12:24:23;;;;;;;0.10;0.10;;;6.30;99.10;;;;;;5034211;28;20228;-72
2023/03/05 12:26:52;;;;;;;0.57;0.57;;;6.30;99.20;;;;;;5034191;28;20170;-73
2023/03/05 12:29:41;;;;;;;0.00;0.00;;;6.30;99.40;;;;;;5035268;28;20596;-74
2023/03/05 12:32:27;;;;;;;0.00;0.00;;;6.30;99.70;;;;;;5054220;28;20231;-73
2023/03/05 12:35:05;;;;;;;0.30;0.30;;;6.30;99.90;;;;;;5053741;28;20667;-73
2023/03/05 12:37:30;;;;;;;0.00;0.00;;;6.30;99.90;;;;;;5053456;28;20200;-72
2023/03/05 12:40:18;;;;;;;0.10;0.10;;;6.30;99.90;;;;;;5053300;28;20636;-73
2023/03/05 12:42:58;;;;;;;0.00;0.00;;;6.30;99.80;;;;;;5066153;28;20743;-73
2023/03/05 12:45:27;;;;;;;0.00;0.00;;;6.30;99.80;;;;;;5053797;28;20324;-75
2023/03/05 12:47:55;;;;;;;0.00;0.00;;;6.30;99.60;;;;;;5053921;28;20525;-75
2023/03/05 12:50:27;;;;;;;0.10;0.10;;;6.30;99.10;;;;;;5053688;28;20296;-73
2023/03/05 12:52:57;;;;;;;0.28;0.10;;;6.30;98.50;;;;;;5054089;28;20178;-72
2023/03/05 12:55:32;;;;;;;0.00;0.00;;;6.30;98.20;;;;;;5053546;28;20185;-71
2023/03/05 12:58:32;;;;;;;0.00;0.00;;;6.20;97.80;;;;;;5053853;28;20175;-72
2023/03/05 13:01:12;;;;;;;0.00;0.00;;;6.20;97.80;;;;;;5024877;28;20201;-72
2023/03/05 13:03:52;;;;;;;0.00;0.00;;;6.20;98.10;;;;;;5035790;28;20181;-71
2023/03/05 13:06:33;;;;;;;0.00;0.00;;;6.10;98.20;;;;;;5053308;28;20177;-72
2023/03/05 13:09:13;;;;;;;0.00;0.00;;;6.10;98.20;;;;;;5053103;28;20198;-71